Weather at Leesburg International Airport

Public forecast

Using degrees Fahrenheit for public forecast. Weather courtesy of forecast.io.

Current aviation weather report (METAR) for Leesburg International Airport

Retrieved 2020/11/26 05:53 UTC (27 minutes ago):

KLEE 260553Z AUTO 00000KT 10SM CLR 18/18 A3018 RMK AO2 SLP219 T01830178 10228 20172 58003

Aviation forecast (TAF) for Leesburg International Airport

Retrieved 2020/11/26 06:42 UTC (0 seconds ago):

TAF KLEE 260541Z 2606/2706 00000KT P6SM SKC FM260900 VRB02KT 5SM MIFG BR SCT010 FM261400 17004KT P6SM SCT040 FM262100 12005KT P6SM SCT050 FM270300 VRB03KT P6SM FEW010 SCT120 SCT250